This is the latest recevied weather packets stored in our database for station/object OM0AGP-15. If no packets are shown the sender has not sent any weather packets the latest 10 day(s).
| Time | Temp. | Humidity | Pressure | Rain* | Wind** | Luminosity | Snow |
|---|---|---|---|---|---|---|---|
| 1777883248 | 17.78° C | 31% | 1017.6 hPa | - | - | - | - |
| 1777882348 | 18.33° C | 31% | 1017.7 hPa | - | - | - | - |
| 1777881447 | 18.89° C | 28% | 1017.7 hPa | - | - | - | - |
| 1777880548 | 19.44° C | 31% | 1017.7 hPa | - | - | - | - |
| 1777879647 | 19.44° C | 32% | 1017.9 hPa | - | - | - | - |
| 1777878747 | 19.44° C | 32% | 1017.7 hPa | - | - | - | - |
| 1777877847 | 19.44° C | 33% | 1017.8 hPa | - | - | - | - |
| 1777876947 | 18.89° C | 33% | 1017.9 hPa | - | - | - | - |
| 1777876050 | 18.89° C | 33% | 1017.9 hPa | - | - | - | - |
| 1777875147 | 18.33° C | 32% | 1017.8 hPa | - | - | - | - |
| 1777874247 | 17.78° C | 32% | 1017.9 hPa | - | - | - | - |
| 1777873347 | 17.22° C | 31% | 1017.9 hPa | - | - | - | - |
| 1777872447 | 15.56° C | 37% | 1018 hPa | - | - | - | - |
| 1777871547 | 14.44° C | 35% | 1017.9 hPa | - | - | - | - |
| 1777870647 | 13.33° C | 40% | 1018 hPa | - | - | - | - |
| 1777869747 | 10.56° C | 46% | 1017.9 hPa | - | - | - | - |
| 1777868847 | 7.22° C | 49% | 1017.8 hPa | - | - | - | - |
| 1777867947 | 3.89° C | 63% | 1017.9 hPa | - | - | - | - |
| 1777867047 | 2.22° C | 71% | 1017.9 hPa | - | - | - | - |
| 1777866146 | 0.56° C | 74% | 1018 hPa | - | - | - | - |
| 1777865246 | 1.11° C | 73% | 1017.9 hPa | - | - | - | - |
| 1777864346 | 1.11° C | 73% | 1018 hPa | - | - | - | - |
| 1777863446 | 1.11° C | 73% | 1018 hPa | - | - | - | - |
| 1777862546 | 0.56° C | 75% | 1018 hPa | - | - | - | - |
| 1777861646 | 1.11° C | 74% | 1018 hPa | - | - | - | - |
* Rain since midnight (hover to see other rain measurements)
** Current wind speed in m/s (hover to see current wind gust speed)